sensor_id;sensor_type;location;lat;lon;timestamp;pressure;altitude;pressure_sealevel;temperature;humidity
39449;BME280;25151;45.566;9.382;2022-10-31T00:01:41;100386.19;;;22.63;63.35
39449;BME280;25151;45.566;9.382;2022-10-31T00:04:42;100383.00;;;22.61;63.26
39449;BME280;25151;45.566;9.382;2022-10-31T00:07:43;100384.72;;;22.58;63.44
39449;BME280;25151;45.566;9.382;2022-10-31T00:10:45;100388.31;;;22.58;63.42
39449;BME280;25151;45.566;9.382;2022-10-31T00:13:46;100374.84;;;22.53;63.47
39449;BME280;25151;45.566;9.382;2022-10-31T00:16:46;100377.28;;;22.51;63.62
39449;BME280;25151;45.566;9.382;2022-10-31T00:19:47;100389.22;;;22.55;63.45
39449;BME280;25151;45.566;9.382;2022-10-31T00:22:49;100379.31;;;22.51;63.55
39449;BME280;25151;45.566;9.382;2022-10-31T00:25:50;100383.25;;;22.53;63.37
39449;BME280;25151;45.566;9.382;2022-10-31T00:28:51;100378.19;;;22.48;63.47
39449;BME280;25151;45.566;9.382;2022-10-31T00:31:52;100392.91;;;22.52;63.33
39449;BME280;25151;45.566;9.382;2022-10-31T00:34:53;100395.72;;;22.52;63.58
39449;BME280;25151;45.566;9.382;2022-10-31T00:37:54;100380.69;;;22.46;63.49
39449;BME280;25151;45.566;9.382;2022-10-31T00:40:55;100385.41;;;22.49;63.48
39449;BME280;25151;45.566;9.382;2022-10-31T00:43:56;100382.59;;;22.49;63.52
39449;BME280;25151;45.566;9.382;2022-10-31T00:46:57;100375.38;;;22.48;63.82
39449;BME280;25151;45.566;9.382;2022-10-31T00:49:58;100383.03;;;22.48;63.29
39449;BME280;25151;45.566;9.382;2022-10-31T00:52:59;100378.97;;;22.49;63.57
39449;BME280;25151;45.566;9.382;2022-10-31T00:56:00;100377.41;;;22.48;63.44
39449;BME280;25151;45.566;9.382;2022-10-31T00:59:00;100370.69;;;22.45;63.24
39449;BME280;25151;45.566;9.382;2022-10-31T01:02:01;100381.91;;;22.45;63.55
39449;BME280;25151;45.566;9.382;2022-10-31T01:05:02;100380.00;;;22.42;63.71
39449;BME280;25151;45.566;9.382;2022-10-31T01:08:03;100371.56;;;22.42;63.66
39449;BME280;25151;45.566;9.382;2022-10-31T01:14:06;100362.78;;;22.40;63.42
39449;BME280;25151;45.566;9.382;2022-10-31T01:17:07;100373.13;;;22.43;63.76
39449;BME280;25151;45.566;9.382;2022-10-31T01:20:24;100378.44;;;22.41;63.22
39449;BME280;25151;45.566;9.382;2022-10-31T01:23:24;100374.47;;;22.39;63.66
39449;BME280;25151;45.566;9.382;2022-10-31T01:26:27;100368.88;;;22.39;63.70
39449;BME280;25151;45.566;9.382;2022-10-31T01:29:29;100376.84;;;22.40;63.77
39449;BME280;25151;45.566;9.382;2022-10-31T01:32:30;100368.75;;;22.42;63.70
39449;BME280;25151;45.566;9.382;2022-10-31T01:35:31;100368.41;;;22.40;63.78
39449;BME280;25151;45.566;9.382;2022-10-31T01:38:31;100362.47;;;22.38;63.36
39449;BME280;25151;45.566;9.382;2022-10-31T01:41:35;100370.44;;;22.40;63.59
39449;BME280;25151;45.566;9.382;2022-10-31T01:47:44;100368.09;;;22.38;63.63
39449;BME280;25151;45.566;9.382;2022-10-31T01:50:48;100375.38;;;22.36;63.70
39449;BME280;25151;45.566;9.382;2022-10-31T01:53:52;100368.97;;;22.35;63.66
39449;BME280;25151;45.566;9.382;2022-10-31T01:56:56;100365.81;;;22.33;63.66
39449;BME280;25151;45.566;9.382;2022-10-31T02:00:02;100369.28;;;22.37;63.58
39449;BME280;25151;45.566;9.382;2022-10-31T02:03:03;100360.66;;;22.31;63.37
39449;BME280;25151;45.566;9.382;2022-10-31T02:06:07;100364.13;;;22.36;63.63
39449;BME280;25151;45.566;9.382;2022-10-31T02:09:12;100354.56;;;22.33;63.52
39449;BME280;25151;45.566;9.382;2022-10-31T02:12:13;100359.41;;;22.32;63.53
39449;BME280;25151;45.566;9.382;2022-10-31T02:15:15;100350.66;;;22.30;63.47
39449;BME280;25151;45.566;9.382;2022-10-31T02:18:16;100337.03;;;22.29;63.57
39449;BME280;25151;45.566;9.382;2022-10-31T02:21:33;100339.53;;;22.27;63.59
39449;BME280;25151;45.566;9.382;2022-10-31T02:31:05;100348.94;;;22.33;63.61
39449;BME280;25151;45.566;9.382;2022-10-31T02:34:21;100345.81;;;22.31;63.44
39449;BME280;25151;45.566;9.382;2022-10-31T02:40:36;100346.59;;;22.31;63.70
39449;BME280;25151;45.566;9.382;2022-10-31T02:47:03;100339.53;;;22.27;63.64
39449;BME280;25151;45.566;9.382;2022-10-31T02:50:20;100342.78;;;22.25;63.48
39449;BME280;25151;45.566;9.382;2022-10-31T02:53:23;100344.25;;;22.30;63.67
39449;BME280;25151;45.566;9.382;2022-10-31T02:56:24;100336.72;;;22.27;63.46
39449;BME280;25151;45.566;9.382;2022-10-31T02:59:25;100347.50;;;22.28;63.41
39449;BME280;25151;45.566;9.382;2022-10-31T03:02:39;100342.34;;;22.27;63.60
39449;BME280;25151;45.566;9.382;2022-10-31T03:06:12;100333.13;;;22.26;63.83
39449;BME280;25151;45.566;9.382;2022-10-31T03:09:24;100338.38;;;22.24;63.72
39449;BME280;25151;45.566;9.382;2022-10-31T03:12:50;100336.38;;;22.25;63.45
39449;BME280;25151;45.566;9.382;2022-10-31T03:19:12;100329.28;;;22.20;63.68
39449;BME280;25151;45.566;9.382;2022-10-31T03:22:16;100329.97;;;22.24;63.68
39449;BME280;25151;45.566;9.382;2022-10-31T03:25:19;100339.16;;;22.25;63.46
39449;BME280;25151;45.566;9.382;2022-10-31T03:28:24;100335.25;;;22.22;63.57
39449;BME280;25151;45.566;9.382;2022-10-31T03:31:31;100326.06;;;22.22;63.77
39449;BME280;25151;45.566;9.382;2022-10-31T03:34:36;100332.09;;;22.20;63.79
39449;BME280;25151;45.566;9.382;2022-10-31T03:37:39;100340.41;;;22.24;63.63
39449;BME280;25151;45.566;9.382;2022-10-31T03:40:43;100337.28;;;22.22;63.77
39449;BME280;25151;45.566;9.382;2022-10-31T03:43:59;100335.69;;;22.21;63.76
39449;BME280;25151;45.566;9.382;2022-10-31T03:47:02;100338.28;;;22.15;63.55
39449;BME280;25151;45.566;9.382;2022-10-31T03:50:06;100348.94;;;22.20;63.76
39449;BME280;25151;45.566;9.382;2022-10-31T03:53:28;100342.53;;;22.20;63.76
39449;BME280;25151;45.566;9.382;2022-10-31T03:59:46;100345.03;;;22.18;63.73
39449;BME280;25151;45.566;9.382;2022-10-31T04:03:10;100340.63;;;22.17;63.83
39449;BME280;25151;45.566;9.382;2022-10-31T04:06:13;100346.25;;;22.17;63.77
39449;BME280;25151;45.566;9.382;2022-10-31T04:09:16;100344.13;;;22.21;63.58
39449;BME280;25151;45.566;9.382;2022-10-31T04:12:20;100345.34;;;22.20;63.57
39449;BME280;25151;45.566;9.382;2022-10-31T04:15:22;100342.22;;;22.18;63.56
39449;BME280;25151;45.566;9.382;2022-10-31T04:18:24;100352.66;;;22.17;63.73
39449;BME280;25151;45.566;9.382;2022-10-31T04:21:28;100357.84;;;22.19;63.88
39449;BME280;25151;45.566;9.382;2022-10-31T04:24:29;100353.09;;;22.16;63.41
39449;BME280;25151;45.566;9.382;2022-10-31T04:27:30;100357.47;;;22.17;63.63
39449;BME280;25151;45.566;9.382;2022-10-31T04:30:31;100351.09;;;22.16;63.35
39449;BME280;25151;45.566;9.382;2022-10-31T04:33:32;100343.13;;;22.15;63.65
39449;BME280;25151;45.566;9.382;2022-10-31T04:36:32;100336.34;;;22.12;63.43
39449;BME280;25151;45.566;9.382;2022-10-31T04:39:33;100339.06;;;22.16;63.59
39449;BME280;25151;45.566;9.382;2022-10-31T04:42:34;100333.13;;;22.14;63.84
39449;BME280;25151;45.566;9.382;2022-10-31T04:45:34;100341.41;;;22.17;63.83
39449;BME280;25151;45.566;9.382;2022-10-31T04:48:35;100335.00;;;22.17;63.70
39449;BME280;25151;45.566;9.382;2022-10-31T04:51:35;100340.31;;;22.15;63.89
39449;BME280;25151;45.566;9.382;2022-10-31T04:54:36;100338.28;;;22.15;63.55
39449;BME280;25151;45.566;9.382;2022-10-31T04:57:44;100337.50;;;22.15;63.57
39449;BME280;25151;45.566;9.382;2022-10-31T05:00:45;100341.53;;;22.14;63.51
39449;BME280;25151;45.566;9.382;2022-10-31T05:03:46;100343.91;;;22.15;63.96
39449;BME280;25151;45.566;9.382;2022-10-31T05:06:46;100339.59;;;22.10;63.54
39449;BME280;25151;45.566;9.382;2022-10-31T05:09:47;100339.13;;;22.12;63.77
39449;BME280;25151;45.566;9.382;2022-10-31T05:12:53;100339.91;;;22.13;63.42
39449;BME280;25151;45.566;9.382;2022-10-31T05:15:54;100340.84;;;22.09;63.88
39449;BME280;25151;45.566;9.382;2022-10-31T05:18:55;100348.34;;;22.13;63.55
39449;BME280;25151;45.566;9.382;2022-10-31T05:21:55;100340.84;;;22.09;63.94
39449;BME280;25151;45.566;9.382;2022-10-31T05:24:56;100355.22;;;22.12;63.67
39449;BME280;25151;45.566;9.382;2022-10-31T05:27:56;100339.25;;;22.08;63.54
39449;BME280;25151;45.566;9.382;2022-10-31T05:30:57;100337.34;;;22.05;63.58
39449;BME280;25151;45.566;9.382;2022-10-31T05:33:58;100332.94;;;22.04;63.70
39449;BME280;25151;45.566;9.382;2022-10-31T05:36:59;100351.25;;;22.09;63.71
39449;BME280;25151;45.566;9.382;2022-10-31T05:39:59;100336.44;;;22.08;63.48
39449;BME280;25151;45.566;9.382;2022-10-31T05:43:00;100342.50;;;22.07;63.81
39449;BME280;25151;45.566;9.382;2022-10-31T05:46:01;100345.66;;;22.09;63.87
39449;BME280;25151;45.566;9.382;2022-10-31T05:49:02;100351.72;;;22.07;63.77
39449;BME280;25151;45.566;9.382;2022-10-31T05:52:03;100354.53;;;22.07;63.66
39449;BME280;25151;45.566;9.382;2022-10-31T05:55:04;100353.75;;;22.07;63.61
39449;BME280;25151;45.566;9.382;2022-10-31T05:58:05;100359.25;;;22.10;63.50
39449;BME280;25151;45.566;9.382;2022-10-31T06:01:05;100347.25;;;22.10;63.66
39449;BME280;25151;45.566;9.382;2022-10-31T06:04:06;100349.38;;;22.06;63.33
39449;BME280;25151;45.566;9.382;2022-10-31T06:07:06;100347.34;;;22.06;63.50
39449;BME280;25151;45.566;9.382;2022-10-31T06:10:08;100340.16;;;22.05;63.68
39449;BME280;25151;45.566;9.382;2022-10-31T06:13:09;100348.59;;;22.05;63.29
39449;BME280;25151;45.566;9.382;2022-10-31T06:16:09;100351.41;;;22.05;63.58
39449;BME280;25151;45.566;9.382;2022-10-31T06:19:10;100360.94;;;22.08;63.50
39449;BME280;25151;45.566;9.382;2022-10-31T06:22:11;100353.28;;;22.08;63.52
39449;BME280;25151;45.566;9.382;2022-10-31T06:25:11;100353.28;;;22.08;63.82
39449;BME280;25151;45.566;9.382;2022-10-31T06:28:12;100347.25;;;22.10;63.71
39449;BME280;25151;45.566;9.382;2022-10-31T06:31:13;100353.63;;;22.10;63.56
39449;BME280;25151;45.566;9.382;2022-10-31T06:34:13;100361.59;;;22.12;63.54
39449;BME280;25151;45.566;9.382;2022-10-31T06:37:14;100364.88;;;22.10;63.72
39449;BME280;25151;45.566;9.382;2022-10-31T06:40:15;100362.38;;;22.13;63.64
39449;BME280;25151;45.566;9.382;2022-10-31T06:43:15;100378.06;;;22.14;63.60
39449;BME280;25151;45.566;9.382;2022-10-31T06:46:16;100368.81;;;22.13;63.63
39449;BME280;25151;45.566;9.382;2022-10-31T06:49:19;100375.56;;;22.16;63.88
39449;BME280;25151;45.566;9.382;2022-10-31T06:52:20;100378.38;;;22.16;63.48
39449;BME280;25151;45.566;9.382;2022-10-31T06:55:24;100386.34;;;22.17;63.52
39449;BME280;25151;45.566;9.382;2022-10-31T06:58:25;100383.13;;;22.19;63.70
39449;BME280;25151;45.566;9.382;2022-10-31T07:01:26;100385.13;;;22.18;63.66
39449;BME280;25151;45.566;9.382;2022-10-31T07:04:26;100389.97;;;22.18;63.77
39449;BME280;25151;45.566;9.382;2022-10-31T07:07:27;100389.53;;;22.19;63.96
39449;BME280;25151;45.566;9.382;2022-10-31T07:10:30;100397.84;;;22.23;63.37
39449;BME280;25151;45.566;9.382;2022-10-31T07:13:34;100400.66;;;22.23;63.71
39449;BME280;25151;45.566;9.382;2022-10-31T07:16:37;100403.91;;;22.21;63.72
39449;BME280;25151;45.566;9.382;2022-10-31T07:19:38;100412.22;;;22.25;63.48
39449;BME280;25151;45.566;9.382;2022-10-31T07:22:38;100406.59;;;22.25;63.59
39449;BME280;25151;45.566;9.382;2022-10-31T07:25:39;100413.72;;;22.29;63.55
39449;BME280;25151;45.566;9.382;2022-10-31T07:28:40;100417.63;;;22.32;63.58
39449;BME280;25151;45.566;9.382;2022-10-31T07:31:41;100419.66;;;22.31;63.43
39449;BME280;25151;45.566;9.382;2022-10-31T07:34:41;100427.63;;;22.33;63.44
39449;BME280;25151;45.566;9.382;2022-10-31T07:37:42;100424.81;;;22.33;63.22
39449;BME280;25151;45.566;9.382;2022-10-31T07:40:43;100429.22;;;22.34;63.50
39449;BME280;25151;45.566;9.382;2022-10-31T07:43:44;100424.72;;;22.37;63.36
39449;BME280;25151;45.566;9.382;2022-10-31T07:46:44;100422.34;;;22.35;63.50
39449;BME280;25151;45.566;9.382;2022-10-31T07:49:45;100429.22;;;22.34;63.21
39449;BME280;25151;45.566;9.382;2022-10-31T07:52:45;100429.22;;;22.34;63.49
39449;BME280;25151;45.566;9.382;2022-10-31T07:55:46;100423.59;;;22.34;63.28
39449;BME280;25151;45.566;9.382;2022-10-31T07:58:47;100424.81;;;22.33;63.38
39449;BME280;25151;45.566;9.382;2022-10-31T08:01:47;100426.06;;;22.32;63.62
39449;BME280;25151;45.566;9.382;2022-10-31T08:04:48;100430.00;;;22.34;63.45
39449;BME280;25151;45.566;9.382;2022-10-31T08:07:50;100430.78;;;22.35;63.11
39449;BME280;25151;45.566;9.382;2022-10-31T08:10:54;100423.13;;;22.36;63.40
39449;BME280;25151;45.566;9.382;2022-10-31T08:13:55;100419.53;;;22.35;63.51
39449;BME280;25151;45.566;9.382;2022-10-31T08:16:55;100427.50;;;22.37;63.31
39449;BME280;25151;45.566;9.382;2022-10-31T08:19:56;100426.72;;;22.36;63.48
39449;BME280;25151;45.566;9.382;2022-10-31T08:23:02;100425.16;;;22.35;63.17
39449;BME280;25151;45.566;9.382;2022-10-31T08:26:03;100421.91;;;22.37;63.09
39449;BME280;25151;45.566;9.382;2022-10-31T08:29:06;100426.41;;;22.34;63.16
39449;BME280;25151;45.566;9.382;2022-10-31T08:32:06;100433.91;;;22.37;63.28
39449;BME280;25151;45.566;9.382;2022-10-31T08:35:07;100430.78;;;22.35;63.41
39449;BME280;25151;45.566;9.382;2022-10-31T08:38:09;100431.09;;;22.37;63.30
39449;BME280;25151;45.566;9.382;2022-10-31T08:41:10;100433.91;;;22.37;63.30
39449;BME280;25151;45.566;9.382;2022-10-31T08:44:10;100429.91;;;22.38;63.00
39449;BME280;25151;45.566;9.382;2022-10-31T08:47:11;100431.47;;;22.39;63.13
39449;BME280;25151;45.566;9.382;2022-10-31T08:50:11;100433.03;;;22.40;63.06
39449;BME280;25151;45.566;9.382;2022-10-31T08:53:16;100433.03;;;22.40;63.34
39449;BME280;25151;45.566;9.382;2022-10-31T08:56:17;100434.63;;;22.41;62.87
39449;BME280;25151;45.566;9.382;2022-10-31T08:59:17;100435.84;;;22.40;62.85
39449;BME280;25151;45.566;9.382;2022-10-31T09:02:18;100435.06;;;22.40;63.09
39449;BME280;25151;45.566;9.382;2022-10-31T09:05:18;100440.25;;;22.41;62.83
39449;BME280;25151;45.566;9.382;2022-10-31T09:08:19;100438.66;;;22.40;63.20
39449;BME280;25151;45.566;9.382;2022-10-31T09:11:20;100433.13;;;22.37;62.82
39449;BME280;25151;45.566;9.382;2022-10-31T09:14:20;100431.00;;;22.41;62.97
39449;BME280;25151;45.566;9.382;2022-10-31T09:17:21;100428.19;;;22.41;63.02
39449;BME280;25151;45.566;9.382;2022-10-31T09:20:22;100427.41;;;22.40;62.58
39449;BME280;25151;45.566;9.382;2022-10-31T09:23:23;100433.03;;;22.40;62.72
39449;BME280;25151;45.566;9.382;2022-10-31T09:26:23;100438.66;;;22.40;63.16
39449;BME280;25151;45.566;9.382;2022-10-31T09:29:24;100441.03;;;22.42;62.88
39449;BME280;25151;45.566;9.382;2022-10-31T09:32:25;100448.31;;;22.39;62.99
39449;BME280;25151;45.566;9.382;2022-10-31T09:35:25;100448.69;;;22.41;63.10
39449;BME280;25151;45.566;9.382;2022-10-31T09:38:26;100455.88;;;22.42;63.06
39449;BME280;25151;45.566;9.382;2022-10-31T09:41:54;100460.25;;;22.43;63.13
39449;BME280;25151;45.566;9.382;2022-10-31T09:45:01;100451.81;;;22.43;63.05
39449;BME280;25151;45.566;9.382;2022-10-31T09:48:21;100457.78;;;22.45;62.52
39449;BME280;25151;45.566;9.382;2022-10-31T09:51:31;100450.47;;;22.48;62.94
39449;BME280;25151;45.566;9.382;2022-10-31T09:57:46;100453.16;;;22.51;62.69
39449;BME280;25151;45.566;9.382;2022-10-31T10:00:49;100445.53;;;22.52;62.43
39449;BME280;25151;45.566;9.382;2022-10-31T10:03:53;100441.03;;;22.54;62.63
39449;BME280;25151;45.566;9.382;2022-10-31T10:06:56;100450.94;;;22.59;62.42
39449;BME280;25151;45.566;9.382;2022-10-31T10:09:58;100433.28;;;22.58;62.12
39449;BME280;25151;45.566;9.382;2022-10-31T10:23:38;100440.94;;;22.71;62.05
39449;BME280;25151;45.566;9.382;2022-10-31T10:30:27;100421.94;;;22.75;62.06
39449;BME280;25151;45.566;9.382;2022-10-31T10:34:16;100419.47;;;22.77;62.01
39449;BME280;25151;45.566;9.382;2022-10-31T10:37:07;100419.78;;;22.79;61.89
39449;BME280;25151;45.566;9.382;2022-10-31T10:40:16;100416.97;;;22.79;61.83
39449;BME280;25151;45.566;9.382;2022-10-31T10:43:24;100414.84;;;22.83;61.28
39449;BME280;25151;45.566;9.382;2022-10-31T10:46:54;100416.41;;;22.84;61.52
39449;BME280;25151;45.566;9.382;2022-10-31T10:50:34;100407.88;;;22.88;61.37
39449;BME280;25151;45.566;9.382;2022-10-31T10:53:50;100414.97;;;22.92;61.15
39449;BME280;25151;45.566;9.382;2022-10-31T10:57:27;100411.72;;;22.94;61.13
39449;BME280;25151;45.566;9.382;2022-10-31T11:00:41;100411.25;;;22.95;60.84
39449;BME280;25151;45.566;9.382;2022-10-31T11:03:42;100409.59;;;22.98;60.94
39449;BME280;25151;45.566;9.382;2022-10-31T11:06:42;100405.53;;;22.99;61.14
39449;BME280;25151;45.566;9.382;2022-10-31T11:09:43;100403.38;;;23.03;60.68
39449;BME280;25151;45.566;9.382;2022-10-31T11:12:58;100397.31;;;23.04;60.71
39449;BME280;25151;45.566;9.382;2022-10-31T11:16:03;100397.31;;;23.04;60.77
39449;BME280;25151;45.566;9.382;2022-10-31T11:19:08;100393.25;;;23.05;60.47
39449;BME280;25151;45.566;9.382;2022-10-31T11:22:15;100394.72;;;23.10;60.97
39449;BME280;25151;45.566;9.382;2022-10-31T11:28:20;100385.81;;;23.12;60.52
39449;BME280;25151;45.566;9.382;2022-10-31T11:31:23;100377.72;;;23.14;60.68
39449;BME280;25151;45.566;9.382;2022-10-31T11:35:08;100384.00;;;23.18;60.43
39449;BME280;25151;45.566;9.382;2022-10-31T11:37:59;100369.59;;;23.16;60.74
39449;BME280;25151;45.566;9.382;2022-10-31T11:41:25;100375.09;;;23.19;60.55
39449;BME280;25151;45.566;9.382;2022-10-31T11:44:30;100381.84;;;23.22;60.53
39449;BME280;25151;45.566;9.382;2022-10-31T11:47:33;100363.28;;;23.12;60.74
39449;BME280;25151;45.566;9.382;2022-10-31T11:50:38;100372.31;;;23.06;60.67
39449;BME280;25151;45.566;9.382;2022-10-31T11:53:53;100375.59;;;23.05;60.81
39449;BME280;25151;45.566;9.382;2022-10-31T11:56:55;100375.25;;;23.03;61.25
39449;BME280;25151;45.566;9.382;2022-10-31T11:59:58;100374.00;;;23.04;61.16
39449;BME280;25151;45.566;9.382;2022-10-31T12:07:02;100368.50;;;23.00;61.28
39449;BME280;25151;45.566;9.382;2022-10-31T12:09:55;100367.59;;;23.03;61.27
39449;BME280;25151;45.566;9.382;2022-10-31T12:16:36;100356.88;;;23.11;61.27
39449;BME280;25151;45.566;9.382;2022-10-31T12:20:26;100352.16;;;23.08;61.09
39449;BME280;25151;45.566;9.382;2022-10-31T12:32:47;100336.34;;;23.01;61.64
39449;BME280;25151;45.566;9.382;2022-10-31T12:36:06;100332.34;;;23.12;61.66
39449;BME280;25151;45.566;9.382;2022-10-31T12:49:02;100314.66;;;23.24;61.55
39449;BME280;25151;45.566;9.382;2022-10-31T13:06:08;100281.53;;;23.28;61.57
39449;BME280;25151;45.566;9.382;2022-10-31T13:09:23;100280.88;;;23.24;61.61
39449;BME280;25151;45.566;9.382;2022-10-31T13:12:27;100279.31;;;23.23;61.83
39449;BME280;25151;45.566;9.382;2022-10-31T13:15:35;100272.13;;;23.22;61.88
39449;BME280;25151;45.566;9.382;2022-10-31T13:18:48;100268.66;;;23.18;61.70
39449;BME280;25151;45.566;9.382;2022-10-31T13:31:33;100276.84;;;23.25;61.91
39449;BME280;25151;45.566;9.382;2022-10-31T13:34:39;100275.91;;;23.28;61.83
39449;BME280;25151;45.566;9.382;2022-10-31T13:38:29;100272.31;;;23.27;61.88
39449;BME280;25151;45.566;9.382;2022-10-31T13:44:27;100254.22;;;23.28;61.86
39449;BME280;25151;45.566;9.382;2022-10-31T13:47:29;100246.56;;;23.29;62.01
39449;BME280;25151;45.566;9.382;2022-10-31T13:50:32;100244.19;;;23.27;61.94
39449;BME280;25151;45.566;9.382;2022-10-31T13:53:39;100245.31;;;23.30;61.89
39449;BME280;25151;45.566;9.382;2022-10-31T13:56:42;100243.75;;;23.29;62.03
39449;BME280;25151;45.566;9.382;2022-10-31T13:59:56;100236.84;;;23.30;61.99
39449;BME280;25151;45.566;9.382;2022-10-31T14:02:57;100227.63;;;23.29;61.81
39449;BME280;25151;45.566;9.382;2022-10-31T14:05:58;100236.53;;;23.28;62.12
39449;BME280;25151;45.566;9.382;2022-10-31T14:08:59;100238.13;;;23.29;61.86
39449;BME280;25151;45.566;9.382;2022-10-31T14:12:04;100225.25;;;23.28;62.15
39449;BME280;25151;45.566;9.382;2022-10-31T14:15:20;100228.09;;;23.28;62.32
39449;BME280;25151;45.566;9.382;2022-10-31T14:30:29;100215.88;;;23.22;62.54
39449;BME280;25151;45.566;9.382;2022-10-31T14:33:30;100219.00;;;23.24;62.25
39449;BME280;25151;45.566;9.382;2022-10-31T14:36:49;100219.00;;;23.24;62.39
39449;BME280;25151;45.566;9.382;2022-10-31T14:53:51;100216.78;;;23.19;62.62
39449;BME280;25151;45.566;9.382;2022-10-31T14:56:55;100204.75;;;23.18;62.53
39449;BME280;25151;45.566;9.382;2022-10-31T15:00:06;100204.75;;;23.18;62.53
39449;BME280;25151;45.566;9.382;2022-10-31T15:03:23;100198.34;;;23.18;62.61
39449;BME280;25151;45.566;9.382;2022-10-31T15:06:26;100197.56;;;23.17;62.71
39449;BME280;25151;45.566;9.382;2022-10-31T15:09:31;100204.09;;;23.14;62.66
39449;BME280;25151;45.566;9.382;2022-10-31T15:12:34;100206.44;;;23.16;62.54
39449;BME280;25151;45.566;9.382;2022-10-31T15:15:39;100200.81;;;23.16;62.37
39449;BME280;25151;45.566;9.382;2022-10-31T15:18:51;100204.88;;;23.15;62.41
39449;BME280;25151;45.566;9.382;2022-10-31T15:21:53;100207.38;;;23.13;62.43
39449;BME280;25151;45.566;9.382;2022-10-31T15:24:55;100202.53;;;23.13;62.64
39449;BME280;25151;45.566;9.382;2022-10-31T15:27:56;100202.53;;;23.13;62.67
39449;BME280;25151;45.566;9.382;2022-10-31T15:30:59;100205.78;;;23.12;62.52
39449;BME280;25151;45.566;9.382;2022-10-31T15:34:11;100192.97;;;23.11;62.53
39449;BME280;25151;45.566;9.382;2022-10-31T15:37:18;100195.78;;;23.11;62.25
39449;BME280;25151;45.566;9.382;2022-10-31T15:40:22;100195.78;;;23.11;62.52
39449;BME280;25151;45.566;9.382;2022-10-31T15:43:24;100195.47;;;23.09;62.62
39449;BME280;25151;45.566;9.382;2022-10-31T15:46:25;100201.09;;;23.09;62.65
39449;BME280;25151;45.566;9.382;2022-10-31T15:50:06;100195.91;;;23.07;62.72
39449;BME280;25151;45.566;9.382;2022-10-31T15:53:25;100192.31;;;23.06;62.44
39449;BME280;25151;45.566;9.382;2022-10-31T15:56:30;100175.56;;;23.03;62.57
39449;BME280;25151;45.566;9.382;2022-10-31T15:59:32;100176.34;;;23.03;62.66
39449;BME280;25151;45.566;9.382;2022-10-31T16:02:32;100185.13;;;23.05;62.78
39449;BME280;25151;45.566;9.382;2022-10-31T16:05:54;100179.94;;;23.04;62.46
39449;BME280;25151;45.566;9.382;2022-10-31T16:08:55;100189.19;;;23.04;62.85
39449;BME280;25151;45.566;9.382;2022-10-31T16:11:56;100193.88;;;23.07;62.71
39449;BME280;25151;45.566;9.382;2022-10-31T16:14:59;100194.00;;;23.04;62.80
39449;BME280;25151;45.566;9.382;2022-10-31T16:17:59;100197.16;;;23.06;62.53
39449;BME280;25151;45.566;9.382;2022-10-31T16:21:00;100196.69;;;23.07;62.82
39449;BME280;25151;45.566;9.382;2022-10-31T16:27:18;100212.47;;;23.05;62.72
39449;BME280;25151;45.566;9.382;2022-10-31T16:30:37;100222.00;;;23.07;62.96
39449;BME280;25151;45.566;9.382;2022-10-31T16:33:41;100222.94;;;23.04;62.74
39449;BME280;25151;45.566;9.382;2022-10-31T16:36:43;100222.13;;;23.04;62.84
39449;BME280;25151;45.566;9.382;2022-10-31T16:39:43;100236.19;;;23.04;62.74
39449;BME280;25151;45.566;9.382;2022-10-31T16:42:45;100228.56;;;23.04;63.09
39449;BME280;25151;45.566;9.382;2022-10-31T16:45:49;100237.00;;;23.04;62.71
39449;BME280;25151;45.566;9.382;2022-10-31T16:48:50;100225.88;;;23.01;63.00
39449;BME280;25151;45.566;9.382;2022-10-31T16:51:50;100236.66;;;23.02;62.57
39449;BME280;25151;45.566;9.382;2022-10-31T16:54:51;100245.44;;;23.04;62.94
39449;BME280;25151;45.566;9.382;2022-10-31T16:57:55;100249.16;;;23.01;63.07
39449;BME280;25151;45.566;9.382;2022-10-31T17:00:56;100253.88;;;23.04;62.95
39449;BME280;25151;45.566;9.382;2022-10-31T17:03:57;100254.78;;;23.01;63.19
39449;BME280;25151;45.566;9.382;2022-10-31T17:06:58;100257.13;;;23.03;62.91
39449;BME280;25151;45.566;9.382;2022-10-31T17:09:59;100266.69;;;23.05;62.81
39449;BME280;25151;45.566;9.382;2022-10-31T17:13:00;100261.19;;;23.02;63.00
39449;BME280;25151;45.566;9.382;2022-10-31T17:16:03;100271.66;;;23.01;62.98
39449;BME280;25151;45.566;9.382;2022-10-31T17:19:04;100273.56;;;23.04;63.05
39449;BME280;25151;45.566;9.382;2022-10-31T17:22:04;100271.19;;;23.03;62.93
39449;BME280;25151;45.566;9.382;2022-10-31T17:25:07;100263.66;;;23.00;63.05
39449;BME280;25151;45.566;9.382;2022-10-31T17:28:12;100278.50;;;23.00;63.03
39449;BME280;25151;45.566;9.382;2022-10-31T17:31:22;100280.09;;;23.01;62.77
39449;BME280;25151;45.566;9.382;2022-10-31T17:34:23;100291.34;;;23.01;62.98
39449;BME280;25151;45.566;9.382;2022-10-31T17:37:23;100286.94;;;23.00;63.24
39449;BME280;25151;45.566;9.382;2022-10-31T17:40:24;100292.13;;;23.02;63.10
39449;BME280;25151;45.566;9.382;2022-10-31T17:43:25;100295.38;;;23.00;63.31
39449;BME280;25151;45.566;9.382;2022-10-31T17:46:26;100298.19;;;23.00;62.92
39449;BME280;25151;45.566;9.382;2022-10-31T17:49:28;100299.44;;;22.99;63.18
39449;BME280;25151;45.566;9.382;2022-10-31T17:52:28;100308.22;;;23.01;62.83
39449;BME280;25151;45.566;9.382;2022-10-31T17:55:30;100299.44;;;22.99;63.15
39449;BME280;25151;45.566;9.382;2022-10-31T17:58:31;100299.13;;;22.97;63.21
39449;BME280;25151;45.566;9.382;2022-10-31T18:01:31;100312.41;;;22.97;63.50
39449;BME280;25151;45.566;9.382;2022-10-31T18:04:32;100306.88;;;22.93;63.16
39449;BME280;25151;45.566;9.382;2022-10-31T18:07:33;100311.03;;;22.89;63.02
39449;BME280;25151;45.566;9.382;2022-10-31T18:10:33;100313.38;;;22.90;63.36
39449;BME280;25151;45.566;9.382;2022-10-31T18:13:35;100322.28;;;22.89;63.14